sensor_id;sensor_type;location;lat;lon;timestamp;P1;durP1;ratioP1;P2;durP2;ratioP2
35636;SDS011;21758;43.542;1.462;2022-07-10T00:00:31;6.30;;;2.22;;
35636;SDS011;21758;43.542;1.462;2022-07-10T00:02:58;5.75;;;2.00;;
35636;SDS011;21758;43.542;1.462;2022-07-10T00:05:24;3.58;;;1.92;;
35636;SDS011;21758;43.542;1.462;2022-07-10T00:07:50;7.28;;;2.20;;
35636;SDS011;21758;43.542;1.462;2022-07-10T00:10:17;9.43;;;2.00;;
35636;SDS011;21758;43.542;1.462;2022-07-10T00:12:45;4.45;;;1.98;;
35636;SDS011;21758;43.542;1.462;2022-07-10T00:15:11;5.05;;;2.00;;
35636;SDS011;21758;43.542;1.462;2022-07-10T00:17:38;5.00;;;1.67;;
35636;SDS011;21758;43.542;1.462;2022-07-10T00:20:04;3.70;;;2.00;;
35636;SDS011;21758;43.542;1.462;2022-07-10T00:22:32;11.15;;;2.08;;
35636;SDS011;21758;43.542;1.462;2022-07-10T00:25:00;4.00;;;2.05;;
35636;SDS011;21758;43.542;1.462;2022-07-10T00:27:26;6.03;;;2.17;;
35636;SDS011;21758;43.542;1.462;2022-07-10T00:29:52;4.97;;;2.30;;
35636;SDS011;21758;43.542;1.462;2022-07-10T00:32:18;7.20;;;1.92;;
35636;SDS011;21758;43.542;1.462;2022-07-10T00:34:43;5.40;;;2.10;;
35636;SDS011;21758;43.542;1.462;2022-07-10T00:37:09;7.00;;;2.03;;
35636;SDS011;21758;43.542;1.462;2022-07-10T00:39:36;3.88;;;2.00;;
35636;SDS011;21758;43.542;1.462;2022-07-10T00:42:07;3.80;;;2.00;;
35636;SDS011;21758;43.542;1.462;2022-07-10T00:44:34;7.32;;;2.33;;
35636;SDS011;21758;43.542;1.462;2022-07-10T00:47:00;3.55;;;1.70;;
35636;SDS011;21758;43.542;1.462;2022-07-10T00:49:26;5.35;;;1.60;;
35636;SDS011;21758;43.542;1.462;2022-07-10T00:51:52;10.23;;;2.00;;
35636;SDS011;21758;43.542;1.462;2022-07-10T00:54:19;6.95;;;1.90;;
35636;SDS011;21758;43.542;1.462;2022-07-10T00:56:45;4.35;;;2.00;;
35636;SDS011;21758;43.542;1.462;2022-07-10T00:59:11;5.40;;;1.83;;
35636;SDS011;21758;43.542;1.462;2022-07-10T01:01:37;4.55;;;2.03;;
35636;SDS011;21758;43.542;1.462;2022-07-10T01:04:02;4.38;;;2.00;;
35636;SDS011;21758;43.542;1.462;2022-07-10T01:06:28;4.28;;;1.67;;
35636;SDS011;21758;43.542;1.462;2022-07-10T01:08:54;9.38;;;1.63;;
35636;SDS011;21758;43.542;1.462;2022-07-10T01:11:19;6.18;;;2.10;;
35636;SDS011;21758;43.542;1.462;2022-07-10T01:13:46;5.93;;;2.30;;
35636;SDS011;21758;43.542;1.462;2022-07-10T01:16:12;5.75;;;1.90;;
35636;SDS011;21758;43.542;1.462;2022-07-10T01:18:38;7.82;;;2.05;;
35636;SDS011;21758;43.542;1.462;2022-07-10T01:21:04;5.15;;;2.05;;
35636;SDS011;21758;43.542;1.462;2022-07-10T01:23:30;4.65;;;1.70;;
35636;SDS011;21758;43.542;1.462;2022-07-10T01:25:56;6.43;;;1.98;;
35636;SDS011;21758;43.542;1.462;2022-07-10T01:28:21;5.47;;;1.73;;
35636;SDS011;21758;43.542;1.462;2022-07-10T01:30:48;5.60;;;1.83;;
35636;SDS011;21758;43.542;1.462;2022-07-10T01:33:14;7.38;;;2.00;;
35636;SDS011;21758;43.542;1.462;2022-07-10T01:35:40;6.88;;;2.10;;
35636;SDS011;21758;43.542;1.462;2022-07-10T01:38:06;3.05;;;1.83;;
35636;SDS011;21758;43.542;1.462;2022-07-10T01:40:32;7.25;;;1.70;;
35636;SDS011;21758;43.542;1.462;2022-07-10T01:42:58;6.07;;;1.90;;
35636;SDS011;21758;43.542;1.462;2022-07-10T01:45:24;5.93;;;2.40;;
35636;SDS011;21758;43.542;1.462;2022-07-10T01:47:50;3.10;;;1.58;;
35636;SDS011;21758;43.542;1.462;2022-07-10T01:50:15;5.30;;;2.40;;
35636;SDS011;21758;43.542;1.462;2022-07-10T01:52:41;6.47;;;2.30;;
35636;SDS011;21758;43.542;1.462;2022-07-10T01:55:07;8.20;;;2.03;;
35636;SDS011;21758;43.542;1.462;2022-07-10T01:57:33;5.53;;;1.95;;
35636;SDS011;21758;43.542;1.462;2022-07-10T01:59:59;5.10;;;1.90;;
35636;SDS011;21758;43.542;1.462;2022-07-10T02:02:25;7.55;;;2.10;;
35636;SDS011;21758;43.542;1.462;2022-07-10T02:04:50;5.13;;;1.80;;
35636;SDS011;21758;43.542;1.462;2022-07-10T02:07:17;7.07;;;2.25;;
35636;SDS011;21758;43.542;1.462;2022-07-10T02:09:47;4.53;;;2.00;;
35636;SDS011;21758;43.542;1.462;2022-07-10T02:12:13;5.90;;;1.70;;
35636;SDS011;21758;43.542;1.462;2022-07-10T02:14:40;3.90;;;1.80;;
35636;SDS011;21758;43.542;1.462;2022-07-10T02:17:06;4.47;;;1.70;;
35636;SDS011;21758;43.542;1.462;2022-07-10T02:19:32;8.15;;;1.80;;
35636;SDS011;21758;43.542;1.462;2022-07-10T02:21:58;4.68;;;1.85;;
35636;SDS011;21758;43.542;1.462;2022-07-10T02:24:25;4.55;;;2.00;;
35636;SDS011;21758;43.542;1.462;2022-07-10T02:26:51;11.95;;;1.92;;
35636;SDS011;21758;43.542;1.462;2022-07-10T02:29:17;5.45;;;2.25;;
35636;SDS011;21758;43.542;1.462;2022-07-10T02:31:43;4.60;;;2.30;;
35636;SDS011;21758;43.542;1.462;2022-07-10T02:34:12;4.00;;;1.83;;
35636;SDS011;21758;43.542;1.462;2022-07-10T02:36:39;8.73;;;2.10;;
35636;SDS011;21758;43.542;1.462;2022-07-10T02:39:05;6.15;;;1.75;;
35636;SDS011;21758;43.542;1.462;2022-07-10T02:41:31;6.55;;;2.50;;
35636;SDS011;21758;43.542;1.462;2022-07-10T02:43:57;5.38;;;1.98;;
35636;SDS011;21758;43.542;1.462;2022-07-10T02:46:24;3.88;;;2.10;;
35636;SDS011;21758;43.542;1.462;2022-07-10T02:48:50;7.05;;;2.00;;
35636;SDS011;21758;43.542;1.462;2022-07-10T02:51:15;4.60;;;1.88;;
35636;SDS011;21758;43.542;1.462;2022-07-10T02:53:41;4.70;;;2.20;;
35636;SDS011;21758;43.542;1.462;2022-07-10T02:56:07;8.30;;;2.08;;
35636;SDS011;21758;43.542;1.462;2022-07-10T02:58:33;3.13;;;1.70;;
35636;SDS011;21758;43.542;1.462;2022-07-10T03:00:59;6.28;;;2.10;;
35636;SDS011;21758;43.542;1.462;2022-07-10T03:03:24;6.68;;;2.22;;
35636;SDS011;21758;43.542;1.462;2022-07-10T03:05:50;4.57;;;1.65;;
35636;SDS011;21758;43.542;1.462;2022-07-10T03:08:16;4.78;;;1.77;;
35636;SDS011;21758;43.542;1.462;2022-07-10T03:10:42;6.05;;;1.77;;
35636;SDS011;21758;43.542;1.462;2022-07-10T03:13:07;8.43;;;2.00;;
35636;SDS011;21758;43.542;1.462;2022-07-10T03:15:33;8.20;;;1.73;;
35636;SDS011;21758;43.542;1.462;2022-07-10T03:17:59;4.13;;;1.83;;
35636;SDS011;21758;43.542;1.462;2022-07-10T03:20:25;4.90;;;2.15;;
35636;SDS011;21758;43.542;1.462;2022-07-10T03:22:50;4.90;;;1.92;;
35636;SDS011;21758;43.542;1.462;2022-07-10T03:25:16;5.35;;;2.15;;
35636;SDS011;21758;43.542;1.462;2022-07-10T03:27:42;5.15;;;2.03;;
35636;SDS011;21758;43.542;1.462;2022-07-10T03:30:08;6.20;;;2.10;;
35636;SDS011;21758;43.542;1.462;2022-07-10T03:32:34;3.38;;;1.70;;
35636;SDS011;21758;43.542;1.462;2022-07-10T03:35:00;5.07;;;2.28;;
35636;SDS011;21758;43.542;1.462;2022-07-10T03:37:25;3.53;;;1.73;;
35636;SDS011;21758;43.542;1.462;2022-07-10T03:39:52;4.65;;;2.00;;
35636;SDS011;21758;43.542;1.462;2022-07-10T03:42:17;3.58;;;2.00;;
35636;SDS011;21758;43.542;1.462;2022-07-10T03:44:43;5.70;;;2.10;;
35636;SDS011;21758;43.542;1.462;2022-07-10T03:47:09;5.38;;;1.83;;
35636;SDS011;21758;43.542;1.462;2022-07-10T03:49:35;4.13;;;1.80;;
35636;SDS011;21758;43.542;1.462;2022-07-10T03:52:04;4.25;;;2.30;;
35636;SDS011;21758;43.542;1.462;2022-07-10T03:54:30;5.57;;;2.00;;
35636;SDS011;21758;43.542;1.462;2022-07-10T03:56:56;3.50;;;1.83;;
35636;SDS011;21758;43.542;1.462;2022-07-10T03:59:41;9.13;;;2.00;;
35636;SDS011;21758;43.542;1.462;2022-07-10T04:02:07;5.80;;;2.35;;
35636;SDS011;21758;43.542;1.462;2022-07-10T04:04:33;5.85;;;2.08;;
35636;SDS011;21758;43.542;1.462;2022-07-10T04:06:58;6.65;;;2.17;;
35636;SDS011;21758;43.542;1.462;2022-07-10T04:09:24;3.47;;;2.05;;
35636;SDS011;21758;43.542;1.462;2022-07-10T04:11:50;10.18;;;2.20;;
35636;SDS011;21758;43.542;1.462;2022-07-10T04:14:15;4.97;;;2.30;;
35636;SDS011;21758;43.542;1.462;2022-07-10T04:16:41;7.95;;;2.67;;
35636;SDS011;21758;43.542;1.462;2022-07-10T04:19:07;3.70;;;2.30;;
35636;SDS011;21758;43.542;1.462;2022-07-10T04:21:32;3.92;;;1.95;;
35636;SDS011;21758;43.542;1.462;2022-07-10T04:23:58;9.40;;;2.30;;
35636;SDS011;21758;43.542;1.462;2022-07-10T04:26:24;5.05;;;2.25;;
35636;SDS011;21758;43.542;1.462;2022-07-10T04:28:49;6.10;;;2.15;;
35636;SDS011;21758;43.542;1.462;2022-07-10T04:31:15;4.28;;;2.05;;
35636;SDS011;21758;43.542;1.462;2022-07-10T04:33:41;7.80;;;2.67;;
35636;SDS011;21758;43.542;1.462;2022-07-10T04:36:06;5.88;;;2.30;;
35636;SDS011;21758;43.542;1.462;2022-07-10T04:38:32;5.13;;;2.08;;
35636;SDS011;21758;43.542;1.462;2022-07-10T04:40:58;5.07;;;1.98;;
35636;SDS011;21758;43.542;1.462;2022-07-10T04:43:24;5.47;;;2.63;;
35636;SDS011;21758;43.542;1.462;2022-07-10T04:45:50;4.55;;;1.90;;
35636;SDS011;21758;43.542;1.462;2022-07-10T04:48:16;9.07;;;2.50;;
35636;SDS011;21758;43.542;1.462;2022-07-10T04:50:42;5.78;;;2.50;;
35636;SDS011;21758;43.542;1.462;2022-07-10T04:53:07;4.40;;;2.30;;
35636;SDS011;21758;43.542;1.462;2022-07-10T04:55:33;8.50;;;2.15;;
35636;SDS011;21758;43.542;1.462;2022-07-10T04:57:59;7.72;;;2.30;;
35636;SDS011;21758;43.542;1.462;2022-07-10T05:00:24;4.72;;;2.25;;
35636;SDS011;21758;43.542;1.462;2022-07-10T05:02:50;5.95;;;2.20;;
35636;SDS011;21758;43.542;1.462;2022-07-10T05:05:16;5.13;;;1.90;;
35636;SDS011;21758;43.542;1.462;2022-07-10T05:07:41;5.85;;;2.22;;
35636;SDS011;21758;43.542;1.462;2022-07-10T05:10:07;4.50;;;2.10;;
35636;SDS011;21758;43.542;1.462;2022-07-10T05:12:33;9.02;;;3.08;;
35636;SDS011;21758;43.542;1.462;2022-07-10T05:14:59;4.80;;;2.30;;
35636;SDS011;21758;43.542;1.462;2022-07-10T05:17:25;6.05;;;2.28;;
35636;SDS011;21758;43.542;1.462;2022-07-10T05:19:56;5.43;;;2.40;;
35636;SDS011;21758;43.542;1.462;2022-07-10T05:22:22;5.80;;;2.38;;
35636;SDS011;21758;43.542;1.462;2022-07-10T05:24:48;6.22;;;2.70;;
35636;SDS011;21758;43.542;1.462;2022-07-10T05:27:14;5.03;;;2.47;;
35636;SDS011;21758;43.542;1.462;2022-07-10T05:29:43;5.70;;;2.53;;
35636;SDS011;21758;43.542;1.462;2022-07-10T05:32:08;8.32;;;2.53;;
35636;SDS011;21758;43.542;1.462;2022-07-10T05:34:34;7.55;;;2.45;;
35636;SDS011;21758;43.542;1.462;2022-07-10T05:37:00;5.05;;;2.38;;
35636;SDS011;21758;43.542;1.462;2022-07-10T05:39:25;8.32;;;2.70;;
35636;SDS011;21758;43.542;1.462;2022-07-10T05:41:51;5.38;;;3.03;;
35636;SDS011;21758;43.542;1.462;2022-07-10T05:44:18;7.40;;;2.80;;
35636;SDS011;21758;43.542;1.462;2022-07-10T05:46:45;5.78;;;2.38;;
35636;SDS011;21758;43.542;1.462;2022-07-10T05:49:11;5.18;;;2.50;;
35636;SDS011;21758;43.542;1.462;2022-07-10T05:51:37;12.77;;;2.67;;
35636;SDS011;21758;43.542;1.462;2022-07-10T05:54:03;5.88;;;2.63;;
35636;SDS011;21758;43.542;1.462;2022-07-10T05:56:29;6.03;;;2.38;;
35636;SDS011;21758;43.542;1.462;2022-07-10T05:58:55;6.05;;;2.78;;
35636;SDS011;21758;43.542;1.462;2022-07-10T06:01:21;4.75;;;2.53;;
35636;SDS011;21758;43.542;1.462;2022-07-10T06:03:47;7.22;;;2.63;;
35636;SDS011;21758;43.542;1.462;2022-07-10T06:06:12;7.07;;;2.85;;
35636;SDS011;21758;43.542;1.462;2022-07-10T06:08:44;2.97;;;2.17;;
35636;SDS011;21758;43.542;1.462;2022-07-10T06:11:10;6.35;;;2.75;;
35636;SDS011;21758;43.542;1.462;2022-07-10T06:13:37;7.15;;;2.20;;
35636;SDS011;21758;43.542;1.462;2022-07-10T06:16:03;6.97;;;2.53;;
35636;SDS011;21758;43.542;1.462;2022-07-10T06:18:29;6.95;;;2.63;;
35636;SDS011;21758;43.542;1.462;2022-07-10T06:20:56;5.60;;;2.25;;
35636;SDS011;21758;43.542;1.462;2022-07-10T06:23:22;5.82;;;2.15;;
35636;SDS011;21758;43.542;1.462;2022-07-10T06:25:47;5.03;;;2.63;;
35636;SDS011;21758;43.542;1.462;2022-07-10T06:28:16;5.97;;;2.50;;
35636;SDS011;21758;43.542;1.462;2022-07-10T06:30:42;6.60;;;2.47;;
35636;SDS011;21758;43.542;1.462;2022-07-10T06:33:08;5.90;;;2.50;;
35636;SDS011;21758;43.542;1.462;2022-07-10T06:35:33;4.28;;;2.35;;
35636;SDS011;21758;43.542;1.462;2022-07-10T06:37:59;5.47;;;2.80;;
35636;SDS011;21758;43.542;1.462;2022-07-10T06:40:26;8.68;;;2.67;;
35636;SDS011;21758;43.542;1.462;2022-07-10T06:42:53;6.55;;;2.60;;
35636;SDS011;21758;43.542;1.462;2022-07-10T06:45:18;6.60;;;2.00;;
35636;SDS011;21758;43.542;1.462;2022-07-10T06:47:47;5.57;;;2.65;;
35636;SDS011;21758;43.542;1.462;2022-07-10T06:50:27;5.38;;;2.60;;
35636;SDS011;21758;43.542;1.462;2022-07-10T06:52:59;7.22;;;2.90;;
35636;SDS011;21758;43.542;1.462;2022-07-10T06:55:25;7.43;;;2.45;;
35636;SDS011;21758;43.542;1.462;2022-07-10T06:57:51;8.90;;;3.22;;
35636;SDS011;21758;43.542;1.462;2022-07-10T07:00:17;8.23;;;2.75;;
35636;SDS011;21758;43.542;1.462;2022-07-10T07:02:43;5.78;;;2.80;;
35636;SDS011;21758;43.542;1.462;2022-07-10T07:05:08;5.88;;;2.88;;
35636;SDS011;21758;43.542;1.462;2022-07-10T07:07:35;6.22;;;2.72;;
35636;SDS011;21758;43.542;1.462;2022-07-10T07:10:01;7.78;;;2.78;;
35636;SDS011;21758;43.542;1.462;2022-07-10T07:12:27;8.02;;;2.70;;
35636;SDS011;21758;43.542;1.462;2022-07-10T07:14:53;6.25;;;2.97;;
35636;SDS011;21758;43.542;1.462;2022-07-10T07:17:19;4.32;;;2.60;;
35636;SDS011;21758;43.542;1.462;2022-07-10T07:19:49;8.50;;;3.00;;
35636;SDS011;21758;43.542;1.462;2022-07-10T07:22:33;4.75;;;2.45;;
35636;SDS011;21758;43.542;1.462;2022-07-10T07:25:18;5.05;;;2.50;;
35636;SDS011;21758;43.542;1.462;2022-07-10T07:27:43;7.00;;;2.70;;
35636;SDS011;21758;43.542;1.462;2022-07-10T07:30:10;7.60;;;3.00;;
35636;SDS011;21758;43.542;1.462;2022-07-10T07:32:40;5.05;;;2.40;;
35636;SDS011;21758;43.542;1.462;2022-07-10T07:35:06;4.22;;;2.83;;
35636;SDS011;21758;43.542;1.462;2022-07-10T07:37:40;8.23;;;3.08;;
35636;SDS011;21758;43.542;1.462;2022-07-10T07:40:07;4.00;;;2.33;;
35636;SDS011;21758;43.542;1.462;2022-07-10T07:42:37;8.35;;;2.78;;
35636;SDS011;21758;43.542;1.462;2022-07-10T07:45:03;7.25;;;2.95;;
35636;SDS011;21758;43.542;1.462;2022-07-10T07:47:30;7.30;;;2.95;;
35636;SDS011;21758;43.542;1.462;2022-07-10T07:50:07;10.40;;;2.80;;
35636;SDS011;21758;43.542;1.462;2022-07-10T07:52:33;8.52;;;2.95;;
35636;SDS011;21758;43.542;1.462;2022-07-10T07:55:00;4.05;;;2.70;;
35636;SDS011;21758;43.542;1.462;2022-07-10T07:57:26;10.02;;;3.13;;
35636;SDS011;21758;43.542;1.462;2022-07-10T07:59:52;8.60;;;3.00;;
35636;SDS011;21758;43.542;1.462;2022-07-10T08:02:17;7.97;;;2.65;;
35636;SDS011;21758;43.542;1.462;2022-07-10T08:04:43;12.30;;;2.72;;
35636;SDS011;21758;43.542;1.462;2022-07-10T08:07:09;7.57;;;2.75;;
35636;SDS011;21758;43.542;1.462;2022-07-10T08:09:34;9.07;;;2.90;;
35636;SDS011;21758;43.542;1.462;2022-07-10T08:12:00;7.60;;;2.88;;
35636;SDS011;21758;43.542;1.462;2022-07-10T08:14:26;7.55;;;3.00;;
35636;SDS011;21758;43.542;1.462;2022-07-10T08:16:51;5.57;;;2.85;;
35636;SDS011;21758;43.542;1.462;2022-07-10T08:19:17;6.57;;;2.60;;
35636;SDS011;21758;43.542;1.462;2022-07-10T08:21:43;5.57;;;3.00;;
35636;SDS011;21758;43.542;1.462;2022-07-10T08:24:09;9.70;;;3.00;;
35636;SDS011;21758;43.542;1.462;2022-07-10T08:26:34;7.30;;;2.80;;
35636;SDS011;21758;43.542;1.462;2022-07-10T08:29:00;6.80;;;2.38;;
35636;SDS011;21758;43.542;1.462;2022-07-10T08:31:26;5.35;;;2.65;;
35636;SDS011;21758;43.542;1.462;2022-07-10T08:33:51;6.32;;;2.72;;
35636;SDS011;21758;43.542;1.462;2022-07-10T08:36:17;6.32;;;2.97;;
35636;SDS011;21758;43.542;1.462;2022-07-10T08:38:43;10.90;;;2.95;;
35636;SDS011;21758;43.542;1.462;2022-07-10T08:41:09;8.38;;;3.25;;
35636;SDS011;21758;43.542;1.462;2022-07-10T08:43:37;4.95;;;2.53;;
35636;SDS011;21758;43.542;1.462;2022-07-10T08:46:04;9.45;;;3.10;;
35636;SDS011;21758;43.542;1.462;2022-07-10T08:48:31;11.30;;;2.58;;
35636;SDS011;21758;43.542;1.462;2022-07-10T08:51:01;6.40;;;2.50;;
35636;SDS011;21758;43.542;1.462;2022-07-10T08:53:30;5.65;;;2.28;;
35636;SDS011;21758;43.542;1.462;2022-07-10T08:55:57;6.28;;;2.53;;
35636;SDS011;21758;43.542;1.462;2022-07-10T08:58:23;9.27;;;2.33;;
35636;SDS011;21758;43.542;1.462;2022-07-10T09:00:50;11.20;;;2.40;;
35636;SDS011;21758;43.542;1.462;2022-07-10T09:03:16;6.10;;;2.50;;
35636;SDS011;21758;43.542;1.462;2022-07-10T10:26:55;2.95;;;1.73;;
35636;SDS011;21758;43.542;1.462;2022-07-10T10:29:21;3.50;;;1.48;;
35636;SDS011;21758;43.542;1.462;2022-07-10T10:31:47;5.35;;;2.15;;
35636;SDS011;21758;43.542;1.462;2022-07-10T10:34:13;4.10;;;2.17;;
35636;SDS011;21758;43.542;1.462;2022-07-10T10:37:06;6.50;;;1.77;;
35636;SDS011;21758;43.542;1.462;2022-07-10T10:39:52;5.10;;;1.98;;
35636;SDS011;21758;43.542;1.462;2022-07-10T10:42:33;3.67;;;1.77;;
35636;SDS011;21758;43.542;1.462;2022-07-10T10:48:00;3.40;;;1.95;;
35636;SDS011;21758;43.542;1.462;2022-07-10T10:53:03;4.43;;;1.63;;
35636;SDS011;21758;43.542;1.462;2022-07-10T10:55:30;5.38;;;1.83;;
35636;SDS011;21758;43.542;1.462;2022-07-10T10:58:11;2.45;;;1.25;;
35636;SDS011;21758;43.542;1.462;2022-07-10T11:00:40;6.97;;;1.80;;
35636;SDS011;21758;43.542;1.462;2022-07-10T11:03:16;2.95;;;1.67;;
35636;SDS011;21758;43.542;1.462;2022-07-10T11:05:43;4.30;;;1.58;;
35636;SDS011;21758;43.542;1.462;2022-07-10T11:08:10;5.50;;;1.90;;
35636;SDS011;21758;43.542;1.462;2022-07-10T11:10:41;8.82;;;1.70;;
35636;SDS011;21758;43.542;1.462;2022-07-10T11:13:11;7.63;;;2.08;;
35636;SDS011;21758;43.542;1.462;2022-07-10T11:18:11;3.22;;;1.70;;
35636;SDS011;21758;43.542;1.462;2022-07-10T11:20:42;4.90;;;1.85;;
35636;SDS011;21758;43.542;1.462;2022-07-10T11:26:04;3.28;;;1.60;;
35636;SDS011;21758;43.542;1.462;2022-07-10T11:28:55;3.42;;;1.75;;
35636;SDS011;21758;43.542;1.462;2022-07-10T11:31:23;6.10;;;1.85;;
35636;SDS011;21758;43.542;1.462;2022-07-10T11:33:51;2.20;;;1.25;;
35636;SDS011;21758;43.542;1.462;2022-07-10T11:38:46;4.78;;;2.03;;
35636;SDS011;21758;43.542;1.462;2022-07-10T11:41:18;5.93;;;1.77;;
35636;SDS011;21758;43.542;1.462;2022-07-10T11:46:16;4.63;;;1.80;;
35636;SDS011;21758;43.542;1.462;2022-07-10T11:48:43;3.30;;;1.70;;
35636;SDS011;21758;43.542;1.462;2022-07-10T11:51:22;4.78;;;2.05;;
35636;SDS011;21758;43.542;1.462;2022-07-10T11:54:02;3.95;;;1.88;;
35636;SDS011;21758;43.542;1.462;2022-07-10T11:56:33;4.40;;;1.98;;
35636;SDS011;21758;43.542;1.462;2022-07-10T11:59:11;2.28;;;1.58;;
35636;SDS011;21758;43.542;1.462;2022-07-10T12:01:41;3.65;;;1.42;;
35636;SDS011;21758;43.542;1.462;2022-07-10T12:04:11;4.38;;;1.70;;
35636;SDS011;21758;43.542;1.462;2022-07-10T12:06:41;3.92;;;1.63;;
35636;SDS011;21758;43.542;1.462;2022-07-10T12:09:16;5.05;;;1.80;;
35636;SDS011;21758;43.542;1.462;2022-07-10T12:11:44;3.65;;;1.83;;
35636;SDS011;21758;43.542;1.462;2022-07-10T12:14:22;6.85;;;1.75;;
35636;SDS011;21758;43.542;1.462;2022-07-10T12:16:49;3.10;;;1.77;;
35636;SDS011;21758;43.542;1.462;2022-07-10T12:19:17;6.80;;;1.80;;
35636;SDS011;21758;43.542;1.462;2022-07-10T12:21:55;4.05;;;1.70;;
35636;SDS011;21758;43.542;1.462;2022-07-10T12:24:22;4.15;;;1.70;;
35636;SDS011;21758;43.542;1.462;2022-07-10T12:26:49;5.20;;;2.15;;
35636;SDS011;21758;43.542;1.462;2022-07-10T12:31:50;3.83;;;1.80;;
35636;SDS011;21758;43.542;1.462;2022-07-10T12:34:20;6.43;;;1.95;;
35636;SDS011;21758;43.542;1.462;2022-07-10T12:36:58;11.20;;;5.22;;
35636;SDS011;21758;43.542;1.462;2022-07-10T12:39:31;2.97;;;1.83;;
35636;SDS011;21758;43.542;1.462;2022-07-10T12:44:30;4.30;;;1.60;;
35636;SDS011;21758;43.542;1.462;2022-07-10T12:49:47;2.88;;;1.45;;
35636;SDS011;21758;43.542;1.462;2022-07-10T12:52:22;3.45;;;1.42;;
35636;SDS011;21758;43.542;1.462;2022-07-10T12:55:04;3.40;;;1.33;;
35636;SDS011;21758;43.542;1.462;2022-07-10T12:57:30;2.73;;;1.20;;
35636;SDS011;21758;43.542;1.462;2022-07-10T13:00:02;2.70;;;1.42;;
35636;SDS011;21758;43.542;1.462;2022-07-10T13:02:30;2.13;;;1.40;;
35636;SDS011;21758;43.542;1.462;2022-07-10T13:04:56;4.22;;;1.52;;
35636;SDS011;21758;43.542;1.462;2022-07-10T13:07:32;2.55;;;1.60;;
35636;SDS011;21758;43.542;1.462;2022-07-10T13:10:02;4.53;;;1.48;;
35636;SDS011;21758;43.542;1.462;2022-07-10T13:12:29;7.10;;;1.80;;
35636;SDS011;21758;43.542;1.462;2022-07-10T13:14:55;1.80;;;1.40;;
35636;SDS011;21758;43.542;1.462;2022-07-10T13:17:21;4.40;;;1.30;;
35636;SDS011;21758;43.542;1.462;2022-07-10T13:19:46;4.47;;;1.38;;
35636;SDS011;21758;43.542;1.462;2022-07-10T13:22:12;2.63;;;1.20;;
35636;SDS011;21758;43.542;1.462;2022-07-10T13:24:38;4.05;;;1.33;;
35636;SDS011;21758;43.542;1.462;2022-07-10T13:27:03;4.15;;;1.70;;
35636;SDS011;21758;43.542;1.462;2022-07-10T13:29:29;4.03;;;1.60;;
35636;SDS011;21758;43.542;1.462;2022-07-10T13:31:55;3.45;;;1.30;;
35636;SDS011;21758;43.542;1.462;2022-07-10T13:34:21;1.80;;;1.30;;
35636;SDS011;21758;43.542;1.462;2022-07-10T13:36:46;2.30;;;1.23;;
35636;SDS011;21758;43.542;1.462;2022-07-10T13:39:12;4.72;;;1.50;;
35636;SDS011;21758;43.542;1.462;2022-07-10T13:41:38;2.67;;;1.40;;
35636;SDS011;21758;43.542;1.462;2022-07-10T13:44:03;2.83;;;1.25;;
35636;SDS011;21758;43.542;1.462;2022-07-10T13:46:29;4.90;;;1.13;;
35636;SDS011;21758;43.542;1.462;2022-07-10T13:48:55;2.85;;;1.17;;
35636;SDS011;21758;43.542;1.462;2022-07-10T13:51:21;4.32;;;1.40;;
35636;SDS011;21758;43.542;1.462;2022-07-10T13:53:47;9.90;;;1.40;;
35636;SDS011;21758;43.542;1.462;2022-07-10T13:56:13;3.55;;;1.42;;
35636;SDS011;21758;43.542;1.462;2022-07-10T13:58:39;3.25;;;1.35;;
35636;SDS011;21758;43.542;1.462;2022-07-10T14:01:04;3.67;;;1.52;;
35636;SDS011;21758;43.542;1.462;2022-07-10T14:03:30;2.38;;;1.30;;
35636;SDS011;21758;43.542;1.462;2022-07-10T14:05:56;4.50;;;1.48;;
35636;SDS011;21758;43.542;1.462;2022-07-10T14:08:22;1.83;;;1.17;;
35636;SDS011;21758;43.542;1.462;2022-07-10T14:10:48;2.83;;;1.10;;
35636;SDS011;21758;43.542;1.462;2022-07-10T14:13:14;3.67;;;1.23;;
35636;SDS011;21758;43.542;1.462;2022-07-10T14:15:40;3.20;;;1.20;;
35636;SDS011;21758;43.542;1.462;2022-07-10T14:18:09;3.17;;;1.10;;
35636;SDS011;21758;43.542;1.462;2022-07-10T14:20:35;5.90;;;1.30;;
35636;SDS011;21758;43.542;1.462;2022-07-10T14:23:19;4.65;;;1.30;;
35636;SDS011;21758;43.542;1.462;2022-07-10T14:25:44;2.20;;;1.20;;
35636;SDS011;21758;43.542;1.462;2022-07-10T14:28:10;3.90;;;1.20;;
35636;SDS011;21758;43.542;1.462;2022-07-10T14:30:38;2.72;;;1.00;;
35636;SDS011;21758;43.542;1.462;2022-07-10T14:33:04;3.53;;;1.00;;
35636;SDS011;21758;43.542;1.462;2022-07-10T14:35:30;5.20;;;1.13;;
35636;SDS011;21758;43.542;1.462;2022-07-10T14:37:55;3.60;;;1.15;;
35636;SDS011;21758;43.542;1.462;2022-07-10T14:40:21;2.05;;;1.20;;
35636;SDS011;21758;43.542;1.462;2022-07-10T14:42:47;8.15;;;1.05;;
35636;SDS011;21758;43.542;1.462;2022-07-10T14:45:12;3.88;;;0.80;;
35636;SDS011;21758;43.542;1.462;2022-07-10T14:47:38;1.33;;;0.90;;
35636;SDS011;21758;43.542;1.462;2022-07-10T14:50:04;3.20;;;0.95;;
35636;SDS011;21758;43.542;1.462;2022-07-10T14:52:30;2.40;;;1.10;;
35636;SDS011;21758;43.542;1.462;2022-07-10T14:54:57;2.08;;;1.15;;
35636;SDS011;21758;43.542;1.462;2022-07-10T14:57:22;1.73;;;1.10;;
35636;SDS011;21758;43.542;1.462;2022-07-10T14:59:48;4.43;;;1.27;;
35636;SDS011;21758;43.542;1.462;2022-07-10T15:02:13;4.00;;;1.30;;
35636;SDS011;21758;43.542;1.462;2022-07-10T15:04:39;2.35;;;1.05;;
35636;SDS011;21758;43.542;1.462;2022-07-10T15:07:05;4.20;;;1.13;;
35636;SDS011;21758;43.542;1.462;2022-07-10T15:09:31;5.18;;;1.10;;
35636;SDS011;21758;43.542;1.462;2022-07-10T15:11:57;2.45;;;1.00;;
35636;SDS011;21758;43.542;1.462;2022-07-10T15:14:22;2.22;;;1.00;;
35636;SDS011;21758;43.542;1.462;2022-07-10T15:16:48;2.78;;;1.10;;
35636;SDS011;21758;43.542;1.462;2022-07-10T15:19:13;2.70;;;1.10;;
35636;SDS011;21758;43.542;1.462;2022-07-10T15:21:39;7.47;;;1.55;;
35636;SDS011;21758;43.542;1.462;2022-07-10T15:24:05;2.35;;;1.08;;
35636;SDS011;21758;43.542;1.462;2022-07-10T15:26:30;3.05;;;1.00;;
35636;SDS011;21758;43.542;1.462;2022-07-10T15:28:56;2.45;;;0.90;;
35636;SDS011;21758;43.542;1.462;2022-07-10T15:31:23;4.40;;;1.38;;
35636;SDS011;21758;43.542;1.462;2022-07-10T15:33:49;3.75;;;1.10;;
35636;SDS011;21758;43.542;1.462;2022-07-10T15:36:15;1.92;;;0.80;;
35636;SDS011;21758;43.542;1.462;2022-07-10T15:38:40;1.90;;;1.17;;
35636;SDS011;21758;43.542;1.462;2022-07-10T15:41:06;1.88;;;1.23;;
35636;SDS011;21758;43.542;1.462;2022-07-10T15:43:33;2.75;;;0.90;;
35636;SDS011;21758;43.542;1.462;2022-07-10T15:45:58;2.05;;;0.80;;
35636;SDS011;21758;43.542;1.462;2022-07-10T15:48:24;1.63;;;0.80;;
35636;SDS011;21758;43.542;1.462;2022-07-10T15:50:50;2.35;;;0.75;;
35636;SDS011;21758;43.542;1.462;2022-07-10T15:53:16;1.00;;;0.70;;
35636;SDS011;21758;43.542;1.462;2022-07-10T15:55:41;1.40;;;0.95;;
35636;SDS011;21758;43.542;1.462;2022-07-10T15:58:07;1.65;;;0.90;;
35636;SDS011;21758;43.542;1.462;2022-07-10T16:00:33;2.53;;;0.82;;
35636;SDS011;21758;43.542;1.462;2022-07-10T16:02:59;2.75;;;1.08;;
35636;SDS011;21758;43.542;1.462;2022-07-10T16:05:25;3.90;;;0.93;;
35636;SDS011;21758;43.542;1.462;2022-07-10T16:07:50;1.67;;;0.85;;
35636;SDS011;21758;43.542;1.462;2022-07-10T16:10:17;3.25;;;0.70;;
35636;SDS011;21758;43.542;1.462;2022-07-10T16:12:43;2.72;;;1.00;;
35636;SDS011;21758;43.542;1.462;2022-07-10T16:15:08;2.13;;;0.80;;
35636;SDS011;21758;43.542;1.462;2022-07-10T16:17:34;4.05;;;1.15;;
35636;SDS011;21758;43.542;1.462;2022-07-10T16:20:00;3.20;;;1.10;;
35636;SDS011;21758;43.542;1.462;2022-07-10T16:22:25;1.85;;;0.80;;
35636;SDS011;21758;43.542;1.462;2022-07-10T16:24:51;3.53;;;1.20;;
35636;SDS011;21758;43.542;1.462;2022-07-10T16:27:35;1.48;;;1.00;;
35636;SDS011;21758;43.542;1.462;2022-07-10T16:30:01;1.98;;;1.00;;
35636;SDS011;21758;43.542;1.462;2022-07-10T16:32:28;2.78;;;0.90;;